sensor_id;sensor_type;location;lat;lon;timestamp;temperature;humidity
28530;DHT22;15737;49.760;6.632;2022-07-22T00:01:59;17.70;99.90
28530;DHT22;15737;49.760;6.632;2022-07-22T00:04:25;17.70;99.90
28530;DHT22;15737;49.760;6.632;2022-07-22T00:06:51;17.60;99.90
28530;DHT22;15737;49.760;6.632;2022-07-22T00:09:16;17.50;99.90
28530;DHT22;15737;49.760;6.632;2022-07-22T00:11:42;17.40;99.90
28530;DHT22;15737;49.760;6.632;2022-07-22T00:14:07;17.30;99.90
28530;DHT22;15737;49.760;6.632;2022-07-22T00:16:33;17.30;99.90
28530;DHT22;15737;49.760;6.632;2022-07-22T00:18:58;17.20;99.90
28530;DHT22;15737;49.760;6.632;2022-07-22T00:21:30;17.20;99.90
28530;DHT22;15737;49.760;6.632;2022-07-22T00:23:55;17.30;99.90
28530;DHT22;15737;49.760;6.632;2022-07-22T00:26:21;17.30;99.90
28530;DHT22;15737;49.760;6.632;2022-07-22T00:28:47;17.20;99.90
28530;DHT22;15737;49.760;6.632;2022-07-22T00:31:12;17.20;99.90
28530;DHT22;15737;49.760;6.632;2022-07-22T00:33:38;17.20;99.90
28530;DHT22;15737;49.760;6.632;2022-07-22T00:36:03;17.20;99.90
28530;DHT22;15737;49.760;6.632;2022-07-22T00:38:29;17.20;99.90
28530;DHT22;15737;49.760;6.632;2022-07-22T00:40:55;17.20;99.90
28530;DHT22;15737;49.760;6.632;2022-07-22T00:43:20;17.20;99.90
28530;DHT22;15737;49.760;6.632;2022-07-22T00:45:46;17.30;99.90
28530;DHT22;15737;49.760;6.632;2022-07-22T00:50:53;17.40;99.90
28530;DHT22;15737;49.760;6.632;2022-07-22T00:53:18;17.40;99.90
28530;DHT22;15737;49.760;6.632;2022-07-22T00:55:44;17.50;99.90
28530;DHT22;15737;49.760;6.632;2022-07-22T00:58:10;17.50;99.90
28530;DHT22;15737;49.760;6.632;2022-07-22T01:00:36;17.40;99.90
28530;DHT22;15737;49.760;6.632;2022-07-22T01:03:01;17.40;99.90
28530;DHT22;15737;49.760;6.632;2022-07-22T01:05:27;17.20;99.90
28530;DHT22;15737;49.760;6.632;2022-07-22T01:07:52;16.90;99.90
28530;DHT22;15737;49.760;6.632;2022-07-22T01:10:18;16.70;99.90
28530;DHT22;15737;49.760;6.632;2022-07-22T01:12:44;16.50;99.90
28530;DHT22;15737;49.760;6.632;2022-07-22T01:15:13;16.30;99.90
28530;DHT22;15737;49.760;6.632;2022-07-22T01:17:38;16.10;99.90
28530;DHT22;15737;49.760;6.632;2022-07-22T01:20:05;16.00;99.90
28530;DHT22;15737;49.760;6.632;2022-07-22T01:22:31;15.90;99.90
28530;DHT22;15737;49.760;6.632;2022-07-22T01:24:57;15.80;99.90
28530;DHT22;15737;49.760;6.632;2022-07-22T01:27:23;15.70;99.90
28530;DHT22;15737;49.760;6.632;2022-07-22T01:29:48;15.60;99.90
28530;DHT22;15737;49.760;6.632;2022-07-22T01:32:14;15.60;99.90
28530;DHT22;15737;49.760;6.632;2022-07-22T01:34:39;15.60;99.90
28530;DHT22;15737;49.760;6.632;2022-07-22T01:37:05;15.50;99.90
28530;DHT22;15737;49.760;6.632;2022-07-22T01:39:30;15.50;99.90
28530;DHT22;15737;49.760;6.632;2022-07-22T01:41:56;15.40;99.90
28530;DHT22;15737;49.760;6.632;2022-07-22T01:44:21;15.40;99.90
28530;DHT22;15737;49.760;6.632;2022-07-22T01:46:47;15.40;99.90
28530;DHT22;15737;49.760;6.632;2022-07-22T01:49:13;15.30;99.90
28530;DHT22;15737;49.760;6.632;2022-07-22T01:51:40;15.30;99.90
28530;DHT22;15737;49.760;6.632;2022-07-22T01:54:06;15.20;99.90
28530;DHT22;15737;49.760;6.632;2022-07-22T01:56:31;15.20;99.90
28530;DHT22;15737;49.760;6.632;2022-07-22T01:58:57;15.20;99.90
28530;DHT22;15737;49.760;6.632;2022-07-22T02:01:22;15.10;99.90
28530;DHT22;15737;49.760;6.632;2022-07-22T02:03:50;15.10;99.90
28530;DHT22;15737;49.760;6.632;2022-07-22T02:06:15;15.10;99.90
28530;DHT22;15737;49.760;6.632;2022-07-22T02:08:41;15.10;99.90
28530;DHT22;15737;49.760;6.632;2022-07-22T02:11:06;15.10;99.90
28530;DHT22;15737;49.760;6.632;2022-07-22T02:13:32;15.10;99.90
28530;DHT22;15737;49.760;6.632;2022-07-22T02:15:57;15.10;99.90
28530;DHT22;15737;49.760;6.632;2022-07-22T02:18:23;15.10;99.90
28530;DHT22;15737;49.760;6.632;2022-07-22T02:20:51;15.00;99.90
28530;DHT22;15737;49.760;6.632;2022-07-22T02:23:28;15.00;99.90
28530;DHT22;15737;49.760;6.632;2022-07-22T02:25:54;15.00;99.90
28530;DHT22;15737;49.760;6.632;2022-07-22T02:28:19;14.90;99.90
28530;DHT22;15737;49.760;6.632;2022-07-22T02:30:45;14.90;99.90
28530;DHT22;15737;49.760;6.632;2022-07-22T02:33:11;15.00;99.90
28530;DHT22;15737;49.760;6.632;2022-07-22T02:35:37;15.00;99.90
28530;DHT22;15737;49.760;6.632;2022-07-22T02:38:03;15.00;99.90
28530;DHT22;15737;49.760;6.632;2022-07-22T02:40:29;15.00;99.90
28530;DHT22;15737;49.760;6.632;2022-07-22T02:42:55;14.90;99.90
28530;DHT22;15737;49.760;6.632;2022-07-22T02:45:20;14.90;99.90
28530;DHT22;15737;49.760;6.632;2022-07-22T02:50:28;14.90;99.90
28530;DHT22;15737;49.760;6.632;2022-07-22T02:52:54;14.90;99.90
28530;DHT22;15737;49.760;6.632;2022-07-22T02:55:19;14.80;99.90
28530;DHT22;15737;49.760;6.632;2022-07-22T02:57:45;14.90;99.90
28530;DHT22;15737;49.760;6.632;2022-07-22T03:00:12;14.90;99.90
28530;DHT22;15737;49.760;6.632;2022-07-22T03:02:38;14.90;99.90
28530;DHT22;15737;49.760;6.632;2022-07-22T03:05:05;14.80;99.90
28530;DHT22;15737;49.760;6.632;2022-07-22T03:07:31;14.80;99.90
28530;DHT22;15737;49.760;6.632;2022-07-22T03:09:56;14.90;99.90
28530;DHT22;15737;49.760;6.632;2022-07-22T03:12:22;15.10;99.90
28530;DHT22;15737;49.760;6.632;2022-07-22T03:17:22;15.00;99.90
28530;DHT22;15737;49.760;6.632;2022-07-22T03:19:48;14.90;99.90
28530;DHT22;15737;49.760;6.632;2022-07-22T03:22:13;14.80;99.90
28530;DHT22;15737;49.760;6.632;2022-07-22T03:24:38;14.80;99.90
28530;DHT22;15737;49.760;6.632;2022-07-22T03:27:04;14.70;99.90
28530;DHT22;15737;49.760;6.632;2022-07-22T03:29:30;14.60;99.90
28530;DHT22;15737;49.760;6.632;2022-07-22T03:31:56;14.60;99.90
28530;DHT22;15737;49.760;6.632;2022-07-22T03:34:21;14.50;99.90
28530;DHT22;15737;49.760;6.632;2022-07-22T03:36:47;14.50;99.90
28530;DHT22;15737;49.760;6.632;2022-07-22T03:39:12;14.40;99.90
28530;DHT22;15737;49.760;6.632;2022-07-22T03:41:40;14.40;99.90
28530;DHT22;15737;49.760;6.632;2022-07-22T03:44:06;14.30;99.90
28530;DHT22;15737;49.760;6.632;2022-07-22T03:46:32;14.30;99.90
28530;DHT22;15737;49.760;6.632;2022-07-22T03:48:57;14.30;99.90
28530;DHT22;15737;49.760;6.632;2022-07-22T03:51:23;14.30;99.90
28530;DHT22;15737;49.760;6.632;2022-07-22T03:56:17;14.30;99.90
28530;DHT22;15737;49.760;6.632;2022-07-22T03:58:43;14.30;99.90
28530;DHT22;15737;49.760;6.632;2022-07-22T04:01:09;14.50;99.90
28530;DHT22;15737;49.760;6.632;2022-07-22T04:03:34;14.70;99.90
28530;DHT22;15737;49.760;6.632;2022-07-22T04:06:00;14.80;99.90
28530;DHT22;15737;49.760;6.632;2022-07-22T04:08:26;14.90;99.90
28530;DHT22;15737;49.760;6.632;2022-07-22T04:10:51;15.00;99.90
28530;DHT22;15737;49.760;6.632;2022-07-22T04:13:17;15.10;99.90
28530;DHT22;15737;49.760;6.632;2022-07-22T04:15:42;15.30;99.90
28530;DHT22;15737;49.760;6.632;2022-07-22T04:18:08;15.50;99.90
28530;DHT22;15737;49.760;6.632;2022-07-22T04:23:08;15.50;99.90
28530;DHT22;15737;49.760;6.632;2022-07-22T04:25:34;15.60;99.90
28530;DHT22;15737;49.760;6.632;2022-07-22T04:28:00;15.90;99.90
28530;DHT22;15737;49.760;6.632;2022-07-22T04:30:28;16.30;99.90
28530;DHT22;15737;49.760;6.632;2022-07-22T04:32:54;16.70;99.90
28530;DHT22;15737;49.760;6.632;2022-07-22T04:35:19;17.00;99.90
28530;DHT22;15737;49.760;6.632;2022-07-22T04:37:45;17.20;99.90
28530;DHT22;15737;49.760;6.632;2022-07-22T04:40:11;17.40;99.90
28530;DHT22;15737;49.760;6.632;2022-07-22T04:42:37;17.70;99.90
28530;DHT22;15737;49.760;6.632;2022-07-22T04:45:03;18.00;99.90
28530;DHT22;15737;49.760;6.632;2022-07-22T04:50:04;18.60;99.90
28530;DHT22;15737;49.760;6.632;2022-07-22T04:52:29;18.90;99.90
28530;DHT22;15737;49.760;6.632;2022-07-22T04:54:56;19.20;99.90
28530;DHT22;15737;49.760;6.632;2022-07-22T04:57:24;19.50;99.90
28530;DHT22;15737;49.760;6.632;2022-07-22T04:59:51;19.90;99.90
28530;DHT22;15737;49.760;6.632;2022-07-22T05:04:59;20.60;99.90
28530;DHT22;15737;49.760;6.632;2022-07-22T05:07:25;20.90;99.90
28530;DHT22;15737;49.760;6.632;2022-07-22T05:09:50;21.10;99.90
28530;DHT22;15737;49.760;6.632;2022-07-22T05:12:16;21.70;99.90
28530;DHT22;15737;49.760;6.632;2022-07-22T05:14:41;22.00;99.90
28530;DHT22;15737;49.760;6.632;2022-07-22T05:17:11;22.50;99.90
28530;DHT22;15737;49.760;6.632;2022-07-22T05:19:38;23.00;99.90
28530;DHT22;15737;49.760;6.632;2022-07-22T05:22:05;23.60;99.90
28530;DHT22;15737;49.760;6.632;2022-07-22T05:24:31;24.00;99.90
28530;DHT22;15737;49.760;6.632;2022-07-22T05:26:56;24.60;98.90
28530;DHT22;15737;49.760;6.632;2022-07-22T05:34:53;25.70;93.80
28530;DHT22;15737;49.760;6.632;2022-07-22T05:37:18;26.10;92.30
28530;DHT22;15737;49.760;6.632;2022-07-22T05:40:10;26.40;91.20
28530;DHT22;15737;49.760;6.632;2022-07-22T05:45:19;27.10;86.00
28530;DHT22;15737;49.760;6.632;2022-07-22T05:47:50;27.00;84.20
28530;DHT22;15737;49.760;6.632;2022-07-22T05:55:24;27.80;78.30
28530;DHT22;15737;49.760;6.632;2022-07-22T06:54:38;37.10;44.60
28530;DHT22;15737;49.760;6.632;2022-07-22T06:57:05;35.70;46.10
28530;DHT22;15737;49.760;6.632;2022-07-22T07:20:40;36.50;43.40
28530;DHT22;15737;49.760;6.632;2022-07-22T07:23:06;36.60;43.00
28530;DHT22;15737;49.760;6.632;2022-07-22T07:31:02;36.80;42.40
28530;DHT22;15737;49.760;6.632;2022-07-22T07:33:28;36.60;42.40
28530;DHT22;15737;49.760;6.632;2022-07-22T07:35:54;37.20;41.70
28530;DHT22;15737;49.760;6.632;2022-07-22T07:38:20;38.30;40.50
28530;DHT22;15737;49.760;6.632;2022-07-22T07:41:01;39.70;38.90
28530;DHT22;15737;49.760;6.632;2022-07-22T07:43:27;40.70;37.60
28530;DHT22;15737;49.760;6.632;2022-07-22T07:45:52;40.80;37.30
28530;DHT22;15737;49.760;6.632;2022-07-22T07:48:21;41.10;36.80
28530;DHT22;15737;49.760;6.632;2022-07-22T07:50:47;40.90;37.20
28530;DHT22;15737;49.760;6.632;2022-07-22T07:53:17;41.70;36.20
28530;DHT22;15737;49.760;6.632;2022-07-22T07:55:42;42.20;35.60
28530;DHT22;15737;49.760;6.632;2022-07-22T07:58:08;42.50;35.00
28530;DHT22;15737;49.760;6.632;2022-07-22T08:00:34;41.90;35.30
28530;DHT22;15737;49.760;6.632;2022-07-22T08:03:00;41.20;35.80
28530;DHT22;15737;49.760;6.632;2022-07-22T08:05:26;40.50;36.20
28530;DHT22;15737;49.760;6.632;2022-07-22T08:07:52;40.10;36.60
28530;DHT22;15737;49.760;6.632;2022-07-22T08:10:18;40.60;35.90
28530;DHT22;15737;49.760;6.632;2022-07-22T08:12:43;41.10;35.40
28530;DHT22;15737;49.760;6.632;2022-07-22T08:15:09;41.20;35.20
28530;DHT22;15737;49.760;6.632;2022-07-22T08:17:35;41.20;35.40
28530;DHT22;15737;49.760;6.632;2022-07-22T08:20:02;41.70;33.90
28530;DHT22;15737;49.760;6.632;2022-07-22T08:22:28;41.70;34.20
28530;DHT22;15737;49.760;6.632;2022-07-22T08:24:54;41.70;34.20
28530;DHT22;15737;49.760;6.632;2022-07-22T08:27:20;42.80;33.20
28530;DHT22;15737;49.760;6.632;2022-07-22T08:29:45;43.70;31.60
28530;DHT22;15737;49.760;6.632;2022-07-22T08:32:11;40.90;34.10
28530;DHT22;15737;49.760;6.632;2022-07-22T08:34:37;40.30;34.60
28530;DHT22;15737;49.760;6.632;2022-07-22T08:37:02;41.30;34.00
28530;DHT22;15737;49.760;6.632;2022-07-22T08:39:28;42.60;32.80
28530;DHT22;15737;49.760;6.632;2022-07-22T08:41:54;44.00;31.60
28530;DHT22;15737;49.760;6.632;2022-07-22T08:44:20;44.40;30.80
28530;DHT22;15737;49.760;6.632;2022-07-22T08:46:46;42.80;32.20
28530;DHT22;15737;49.760;6.632;2022-07-22T08:49:16;40.80;33.90
28530;DHT22;15737;49.760;6.632;2022-07-22T08:51:41;38.40;36.00
28530;DHT22;15737;49.760;6.632;2022-07-22T08:54:07;37.10;37.60
28530;DHT22;15737;49.760;6.632;2022-07-22T08:56:33;38.40;36.20
28530;DHT22;15737;49.760;6.632;2022-07-22T08:58:58;40.70;34.00
28530;DHT22;15737;49.760;6.632;2022-07-22T09:01:24;42.30;32.50
28530;DHT22;15737;49.760;6.632;2022-07-22T09:03:53;43.00;32.50
28530;DHT22;15737;49.760;6.632;2022-07-22T09:06:22;42.20;32.30
28530;DHT22;15737;49.760;6.632;2022-07-22T09:11:18;43.40;31.40
28530;DHT22;15737;49.760;6.632;2022-07-22T09:13:45;43.50;31.30
28530;DHT22;15737;49.760;6.632;2022-07-22T09:16:11;44.30;30.70
28530;DHT22;15737;49.760;6.632;2022-07-22T09:18:48;44.60;30.40
28530;DHT22;15737;49.760;6.632;2022-07-22T09:21:14;43.50;31.10
28530;DHT22;15737;49.760;6.632;2022-07-22T09:23:41;42.80;30.90
28530;DHT22;15737;49.760;6.632;2022-07-22T09:26:37;43.10;30.80
28530;DHT22;15737;49.760;6.632;2022-07-22T09:29:08;43.20;30.60
28530;DHT22;15737;49.760;6.632;2022-07-22T09:31:35;41.90;32.50
28530;DHT22;15737;49.760;6.632;2022-07-22T09:34:02;41.90;31.80
28530;DHT22;15737;49.760;6.632;2022-07-22T09:36:28;42.00;31.50
28530;DHT22;15737;49.760;6.632;2022-07-22T09:38:57;42.60;31.00
28530;DHT22;15737;49.760;6.632;2022-07-22T09:41:23;42.30;31.30
28530;DHT22;15737;49.760;6.632;2022-07-22T09:43:49;41.50;31.90
28530;DHT22;15737;49.760;6.632;2022-07-22T09:46:35;40.80;32.80
28530;DHT22;15737;49.760;6.632;2022-07-22T09:49:02;40.20;32.80
28530;DHT22;15737;49.760;6.632;2022-07-22T09:51:29;39.00;34.30
28530;DHT22;15737;49.760;6.632;2022-07-22T09:53:55;39.80;33.70
28530;DHT22;15737;49.760;6.632;2022-07-22T09:56:22;40.90;32.70
28530;DHT22;15737;49.760;6.632;2022-07-22T09:58:48;41.60;32.00
28530;DHT22;15737;49.760;6.632;2022-07-22T10:01:14;42.60;31.20
28530;DHT22;15737;49.760;6.632;2022-07-22T10:03:42;43.00;30.90
28530;DHT22;15737;49.760;6.632;2022-07-22T10:06:08;42.20;31.30
28530;DHT22;15737;49.760;6.632;2022-07-22T10:08:36;40.90;32.60
28530;DHT22;15737;49.760;6.632;2022-07-22T10:11:04;39.50;34.10
28530;DHT22;15737;49.760;6.632;2022-07-22T10:13:32;39.10;34.70
28530;DHT22;15737;49.760;6.632;2022-07-22T10:15:59;40.10;33.80
28530;DHT22;15737;49.760;6.632;2022-07-22T10:18:26;41.20;32.70
28530;DHT22;15737;49.760;6.632;2022-07-22T10:21:06;40.70;33.00
28530;DHT22;15737;49.760;6.632;2022-07-22T10:23:32;39.40;34.80
28530;DHT22;15737;49.760;6.632;2022-07-22T10:26:00;39.00;34.60
28530;DHT22;15737;49.760;6.632;2022-07-22T10:28:34;38.50;35.00
28530;DHT22;15737;49.760;6.632;2022-07-22T10:33:41;40.60;33.40
28530;DHT22;15737;49.760;6.632;2022-07-22T10:36:08;40.60;33.10
28530;DHT22;15737;49.760;6.632;2022-07-22T10:38:34;39.30;34.00
28530;DHT22;15737;49.760;6.632;2022-07-22T10:41:03;39.00;34.30
28530;DHT22;15737;49.760;6.632;2022-07-22T10:43:30;38.90;34.70
28530;DHT22;15737;49.760;6.632;2022-07-22T10:46:01;39.60;34.40
28530;DHT22;15737;49.760;6.632;2022-07-22T10:51:13;38.50;35.50
28530;DHT22;15737;49.760;6.632;2022-07-22T10:53:56;38.10;35.80
28530;DHT22;15737;49.760;6.632;2022-07-22T10:56:26;37.70;36.30
28530;DHT22;15737;49.760;6.632;2022-07-22T11:01:28;37.20;36.80
28530;DHT22;15737;49.760;6.632;2022-07-22T11:03:55;36.90;36.90
28530;DHT22;15737;49.760;6.632;2022-07-22T11:06:31;36.30;37.40
28530;DHT22;15737;49.760;6.632;2022-07-22T11:09:02;36.10;38.00
28530;DHT22;15737;49.760;6.632;2022-07-22T11:11:34;36.60;37.30
28530;DHT22;15737;49.760;6.632;2022-07-22T11:14:00;35.80;38.20
28530;DHT22;15737;49.760;6.632;2022-07-22T11:16:27;35.00;39.50
28530;DHT22;15737;49.760;6.632;2022-07-22T11:18:56;34.70;39.90
28530;DHT22;15737;49.760;6.632;2022-07-22T11:21:24;34.30;40.40
28530;DHT22;15737;49.760;6.632;2022-07-22T11:23:52;33.90;41.00
28530;DHT22;15737;49.760;6.632;2022-07-22T11:26:25;33.80;41.40
28530;DHT22;15737;49.760;6.632;2022-07-22T11:28:54;34.30;41.00
28530;DHT22;15737;49.760;6.632;2022-07-22T11:31:20;34.70;40.90
28530;DHT22;15737;49.760;6.632;2022-07-22T11:33:46;34.50;40.80
28530;DHT22;15737;49.760;6.632;2022-07-22T11:36:11;34.10;41.30
28530;DHT22;15737;49.760;6.632;2022-07-22T11:38:49;34.30;41.50
28530;DHT22;15737;49.760;6.632;2022-07-22T11:41:16;35.70;39.90
28530;DHT22;15737;49.760;6.632;2022-07-22T11:43:49;36.70;38.90
28530;DHT22;15737;49.760;6.632;2022-07-22T11:46:16;36.50;38.70
28530;DHT22;15737;49.760;6.632;2022-07-22T11:48:42;36.00;39.20
28530;DHT22;15737;49.760;6.632;2022-07-22T11:51:10;35.00;40.10
28530;DHT22;15737;49.760;6.632;2022-07-22T11:53:37;34.70;40.70
28530;DHT22;15737;49.760;6.632;2022-07-22T11:56:04;35.60;40.00
28530;DHT22;15737;49.760;6.632;2022-07-22T12:01:11;38.30;37.50
28530;DHT22;15737;49.760;6.632;2022-07-22T12:03:38;38.00;37.70
28530;DHT22;15737;49.760;6.632;2022-07-22T12:06:07;36.60;39.00
28530;DHT22;15737;49.760;6.632;2022-07-22T12:08:34;36.10;39.70
28530;DHT22;15737;49.760;6.632;2022-07-22T12:11:01;35.90;39.90
28530;DHT22;15737;49.760;6.632;2022-07-22T12:13:31;36.00;40.10
28530;DHT22;15737;49.760;6.632;2022-07-22T12:15:56;37.20;39.20
28530;DHT22;15737;49.760;6.632;2022-07-22T12:18:26;37.80;38.20
28530;DHT22;15737;49.760;6.632;2022-07-22T12:20:53;37.50;38.30
28530;DHT22;15737;49.760;6.632;2022-07-22T12:23:24;36.50;38.50
28530;DHT22;15737;49.760;6.632;2022-07-22T12:25:52;36.00;38.90
28530;DHT22;15737;49.760;6.632;2022-07-22T12:28:17;35.00;40.10
28530;DHT22;15737;49.760;6.632;2022-07-22T12:30:43;34.50;40.60
28530;DHT22;15737;49.760;6.632;2022-07-22T12:33:16;34.70;40.80
28530;DHT22;15737;49.760;6.632;2022-07-22T12:35:43;35.50;40.20
28530;DHT22;15737;49.760;6.632;2022-07-22T12:38:10;36.00;39.70
28530;DHT22;15737;49.760;6.632;2022-07-22T12:40:37;36.40;39.50
28530;DHT22;15737;49.760;6.632;2022-07-22T12:43:06;36.40;39.10
28530;DHT22;15737;49.760;6.632;2022-07-22T12:45:34;36.70;38.80
28530;DHT22;15737;49.760;6.632;2022-07-22T12:50:40;37.80;37.40
28530;DHT22;15737;49.760;6.632;2022-07-22T12:55:49;39.30;36.00
28530;DHT22;15737;49.760;6.632;2022-07-22T12:58:20;38.70;35.70
28530;DHT22;15737;49.760;6.632;2022-07-22T13:00:51;37.70;36.80
28530;DHT22;15737;49.760;6.632;2022-07-22T13:03:20;37.50;37.10
28530;DHT22;15737;49.760;6.632;2022-07-22T13:05:52;37.60;37.50
28530;DHT22;15737;49.760;6.632;2022-07-22T13:08:18;37.60;37.80
28530;DHT22;15737;49.760;6.632;2022-07-22T13:10:44;36.90;38.20
28530;DHT22;15737;49.760;6.632;2022-07-22T13:13:10;36.00;39.20
28530;DHT22;15737;49.760;6.632;2022-07-22T13:15:36;34.90;40.30
28530;DHT22;15737;49.760;6.632;2022-07-22T13:18:02;34.40;41.00
28530;DHT22;15737;49.760;6.632;2022-07-22T13:20:28;34.60;40.90
28530;DHT22;15737;49.760;6.632;2022-07-22T13:22:53;34.80;41.10
28530;DHT22;15737;49.760;6.632;2022-07-22T13:27:49;35.80;39.80
28530;DHT22;15737;49.760;6.632;2022-07-22T13:30:15;37.00;38.70
28530;DHT22;15737;49.760;6.632;2022-07-22T13:32:40;37.30;37.90
28530;DHT22;15737;49.760;6.632;2022-07-22T13:35:06;37.10;38.50
28530;DHT22;15737;49.760;6.632;2022-07-22T13:37:32;37.70;37.90
28530;DHT22;15737;49.760;6.632;2022-07-22T13:40:00;37.20;38.00
28530;DHT22;15737;49.760;6.632;2022-07-22T13:42:26;36.30;38.80
28530;DHT22;15737;49.760;6.632;2022-07-22T13:44:51;35.30;39.60
28530;DHT22;15737;49.760;6.632;2022-07-22T13:47:17;34.20;40.80
28530;DHT22;15737;49.760;6.632;2022-07-22T13:49:43;33.30;41.70
28530;DHT22;15737;49.760;6.632;2022-07-22T13:52:12;33.40;41.90
28530;DHT22;15737;49.760;6.632;2022-07-22T13:54:39;34.00;41.20
28530;DHT22;15737;49.760;6.632;2022-07-22T13:57:05;34.90;40.50
28530;DHT22;15737;49.760;6.632;2022-07-22T13:59:30;36.40;38.90
28530;DHT22;15737;49.760;6.632;2022-07-22T14:01:57;36.70;38.00
28530;DHT22;15737;49.760;6.632;2022-07-22T14:04:23;36.70;38.00
28530;DHT22;15737;49.760;6.632;2022-07-22T14:06:49;36.70;38.20
28530;DHT22;15737;49.760;6.632;2022-07-22T14:09:15;36.80;38.20
28530;DHT22;15737;49.760;6.632;2022-07-22T14:11:40;37.20;37.70
28530;DHT22;15737;49.760;6.632;2022-07-22T14:14:06;37.40;37.00
28530;DHT22;15737;49.760;6.632;2022-07-22T14:16:32;36.70;37.70
28530;DHT22;15737;49.760;6.632;2022-07-22T14:19:07;36.50;37.60
28530;DHT22;15737;49.760;6.632;2022-07-22T14:21:35;35.60;37.60
28530;DHT22;15737;49.760;6.632;2022-07-22T14:24:02;34.80;38.60
28530;DHT22;15737;49.760;6.632;2022-07-22T14:26:28;34.00;39.20
28530;DHT22;15737;49.760;6.632;2022-07-22T14:28:54;33.20;40.10
28530;DHT22;15737;49.760;6.632;2022-07-22T14:31:20;33.20;40.60
28530;DHT22;15737;49.760;6.632;2022-07-22T14:33:46;34.30;39.80
28530;DHT22;15737;49.760;6.632;2022-07-22T14:36:12;35.40;38.60
28530;DHT22;15737;49.760;6.632;2022-07-22T14:38:37;36.10;37.80
28530;DHT22;15737;49.760;6.632;2022-07-22T14:41:03;36.90;37.40
28530;DHT22;15737;49.760;6.632;2022-07-22T14:43:29;38.00;36.60
28530;DHT22;15737;49.760;6.632;2022-07-22T14:45:55;38.70;35.90
28530;DHT22;15737;49.760;6.632;2022-07-22T14:48:20;38.40;34.70
28530;DHT22;15737;49.760;6.632;2022-07-22T14:50:46;36.10;36.10
28530;DHT22;15737;49.760;6.632;2022-07-22T14:53:12;34.50;38.20
28530;DHT22;15737;49.760;6.632;2022-07-22T14:55:38;34.20;38.80
28530;DHT22;15737;49.760;6.632;2022-07-22T14:58:03;33.60;39.50
28530;DHT22;15737;49.760;6.632;2022-07-22T15:00:29;33.40;40.10
28530;DHT22;15737;49.760;6.632;2022-07-22T15:02:54;33.80;40.20
28530;DHT22;15737;49.760;6.632;2022-07-22T15:05:20;34.10;39.40
28530;DHT22;15737;49.760;6.632;2022-07-22T15:07:45;33.70;39.70
28530;DHT22;15737;49.760;6.632;2022-07-22T15:10:11;33.30;40.30
28530;DHT22;15737;49.760;6.632;2022-07-22T15:12:36;33.20;40.60
28530;DHT22;15737;49.760;6.632;2022-07-22T15:15:03;33.30;40.70
28530;DHT22;15737;49.760;6.632;2022-07-22T15:17:34;33.40;40.60
28530;DHT22;15737;49.760;6.632;2022-07-22T15:20:00;33.60;40.50
28530;DHT22;15737;49.760;6.632;2022-07-22T15:22:27;33.70;39.80
28530;DHT22;15737;49.760;6.632;2022-07-22T15:24:53;33.50;40.10
28530;DHT22;15737;49.760;6.632;2022-07-22T15:27:19;33.30;40.20
28530;DHT22;15737;49.760;6.632;2022-07-22T15:29:44;33.30;40.10
28530;DHT22;15737;49.760;6.632;2022-07-22T15:32:10;33.70;40.00
28530;DHT22;15737;49.760;6.632;2022-07-22T15:34:37;34.40;39.10
28530;DHT22;15737;49.760;6.632;2022-07-22T15:37:02;34.70;38.50
28530;DHT22;15737;49.760;6.632;2022-07-22T15:39:28;34.20;38.80
28530;DHT22;15737;49.760;6.632;2022-07-22T15:41:54;33.90;39.50
28530;DHT22;15737;49.760;6.632;2022-07-22T15:44:19;33.30;39.60
28530;DHT22;15737;49.760;6.632;2022-07-22T15:46:45;33.30;40.20
28530;DHT22;15737;49.760;6.632;2022-07-22T15:49:12;33.50;39.90
28530;DHT22;15737;49.760;6.632;2022-07-22T15:51:37;33.00;40.20
28530;DHT22;15737;49.760;6.632;2022-07-22T15:54:03;32.60;40.90
28530;DHT22;15737;49.760;6.632;2022-07-22T15:56:29;32.60;41.10
28530;DHT22;15737;49.760;6.632;2022-07-22T15:58:54;32.60;41.00
28530;DHT22;15737;49.760;6.632;2022-07-22T16:01:39;32.40;41.20
28530;DHT22;15737;49.760;6.632;2022-07-22T16:04:04;31.90;41.90
28530;DHT22;15737;49.760;6.632;2022-07-22T16:06:30;31.80;42.40
28530;DHT22;15737;49.760;6.632;2022-07-22T16:08:56;31.50;43.10
28530;DHT22;15737;49.760;6.632;2022-07-22T16:11:21;31.10;43.60
28530;DHT22;15737;49.760;6.632;2022-07-22T16:13:47;30.80;44.10
28530;DHT22;15737;49.760;6.632;2022-07-22T16:16:13;30.60;44.60
28530;DHT22;15737;49.760;6.632;2022-07-22T16:18:38;30.30;44.90
28530;DHT22;15737;49.760;6.632;2022-07-22T16:21:04;29.90;45.40
28530;DHT22;15737;49.760;6.632;2022-07-22T16:23:30;29.90;45.90
28530;DHT22;15737;49.760;6.632;2022-07-22T16:25:56;29.80;46.10
28530;DHT22;15737;49.760;6.632;2022-07-22T16:28:22;29.60;46.20
28530;DHT22;15737;49.760;6.632;2022-07-22T16:30:47;29.50;46.50
28530;DHT22;15737;49.760;6.632;2022-07-22T16:33:13;29.50;46.90
28530;DHT22;15737;49.760;6.632;2022-07-22T16:35:39;29.60;46.80
28530;DHT22;15737;49.760;6.632;2022-07-22T16:38:04;29.70;46.70
28530;DHT22;15737;49.760;6.632;2022-07-22T16:40:30;29.80;46.60
28530;DHT22;15737;49.760;6.632;2022-07-22T16:42:56;29.90;46.40
28530;DHT22;15737;49.760;6.632;2022-07-22T16:45:21;30.00;46.20
28530;DHT22;15737;49.760;6.632;2022-07-22T16:47:47;30.20;46.30
28530;DHT22;15737;49.760;6.632;2022-07-22T16:50:12;30.40;46.10
28530;DHT22;15737;49.760;6.632;2022-07-22T16:52:38;30.60;45.90
28530;DHT22;15737;49.760;6.632;2022-07-22T16:55:04;30.70;46.10
28530;DHT22;15737;49.760;6.632;2022-07-22T16:57:30;30.50;46.10
28530;DHT22;15737;49.760;6.632;2022-07-22T16:59:55;30.20;46.70
28530;DHT22;15737;49.760;6.632;2022-07-22T17:02:21;29.80;47.40
28530;DHT22;15737;49.760;6.632;2022-07-22T17:04:47;29.50;48.00
28530;DHT22;15737;49.760;6.632;2022-07-22T17:07:12;29.30;48.30
28530;DHT22;15737;49.760;6.632;2022-07-22T17:09:39;29.10;48.80
28530;DHT22;15737;49.760;6.632;2022-07-22T17:12:05;28.80;49.10
28530;DHT22;15737;49.760;6.632;2022-07-22T17:14:31;28.80;49.30
28530;DHT22;15737;49.760;6.632;2022-07-22T17:16:56;28.70;49.40
28530;DHT22;15737;49.760;6.632;2022-07-22T17:19:22;28.60;49.50
28530;DHT22;15737;49.760;6.632;2022-07-22T17:21:47;28.50;49.80
28530;DHT22;15737;49.760;6.632;2022-07-22T17:24:13;28.20;50.10
28530;DHT22;15737;49.760;6.632;2022-07-22T17:26:39;28.10;50.50
28530;DHT22;15737;49.760;6.632;2022-07-22T17:29:04;28.00;50.70
28530;DHT22;15737;49.760;6.632;2022-07-22T17:31:30;28.00;51.00
28530;DHT22;15737;49.760;6.632;2022-07-22T17:33:56;27.90;51.10
28530;DHT22;15737;49.760;6.632;2022-07-22T17:36:22;27.80;51.20
28530;DHT22;15737;49.760;6.632;2022-07-22T17:38:47;27.80;51.30
28530;DHT22;15737;49.760;6.632;2022-07-22T17:41:14;27.70;51.40
28530;DHT22;15737;49.760;6.632;2022-07-22T17:43:40;27.70;51.50